sensor_id;sensor_type;location;lat;lon;timestamp;noise_LAeq;noise_LA_min;noise_LA_max;noise_LA01;noise_LA95
66463;Laerm;56827;52.178;4.500;2023-10-13T00:00:02;46.26;41.14;49.54;;
66463;Laerm;56827;52.178;4.500;2023-10-13T00:00:32;40.52;35.84;49.89;;
66463;Laerm;56827;52.178;4.500;2023-10-13T00:00:46;39.97;36.08;47.91;;
66463;Laerm;56827;52.178;4.500;2023-10-13T00:00:57;40.32;35.97;48.14;;
66463;Laerm;56827;52.178;4.500;2023-10-13T00:01:08;39.05;36.04;48.45;;
66463;Laerm;56827;52.178;4.500;2023-10-13T00:01:24;41.29;35.66;50.63;;
66463;Laerm;56827;52.178;4.500;2023-10-13T00:01:34;40.02;36.62;51.87;;
66463;Laerm;56827;52.178;4.500;2023-10-13T00:01:45;44.59;40.22;49.21;;
66463;Laerm;56827;52.178;4.500;2023-10-13T00:01:57;47.66;41.89;51.51;;
66463;Laerm;56827;52.178;4.500;2023-10-13T00:02:11;42.90;37.27;53.14;;
66463;Laerm;56827;52.178;4.500;2023-10-13T00:02:21;41.00;37.32;48.58;;
66463;Laerm;56827;52.178;4.500;2023-10-13T00:02:32;40.43;36.22;49.46;;
66463;Laerm;56827;52.178;4.500;2023-10-13T00:02:43;40.96;35.52;50.70;;
66463;Laerm;56827;52.178;4.500;2023-10-13T00:02:53;38.83;35.41;46.34;;
66463;Laerm;56827;52.178;4.500;2023-10-13T00:03:04;44.79;39.11;53.30;;
66463;Laerm;56827;52.178;4.500;2023-10-13T00:03:15;39.75;36.77;47.71;;
66463;Laerm;56827;52.178;4.500;2023-10-13T00:03:25;38.12;34.66;50.63;;
66463;Laerm;56827;52.178;4.500;2023-10-13T00:03:41;36.79;33.62;50.06;;
66463;Laerm;56827;52.178;4.500;2023-10-13T00:03:51;35.96;33.25;45.05;;
66463;Laerm;56827;52.178;4.500;2023-10-13T00:04:02;37.75;33.64;51.13;;
66463;Laerm;56827;52.178;4.500;2023-10-13T00:04:15;36.40;33.68;44.51;;
66463;Laerm;56827;52.178;4.500;2023-10-13T00:04:25;41.57;34.07;51.46;;
66463;Laerm;56827;52.178;4.500;2023-10-13T00:04:36;42.76;37.42;49.03;;
66463;Laerm;56827;52.178;4.500;2023-10-13T00:04:46;37.60;33.93;50.21;;
66463;Laerm;56827;52.178;4.500;2023-10-13T00:04:56;40.30;34.80;50.62;;
66463;Laerm;56827;52.178;4.500;2023-10-13T00:05:07;44.04;39.02;48.39;;
66463;Laerm;56827;52.178;4.500;2023-10-13T00:05:19;41.31;36.76;51.09;;
66463;Laerm;56827;52.178;4.500;2023-10-13T00:05:29;38.23;35.75;41.90;;
66463;Laerm;56827;52.178;4.500;2023-10-13T00:05:43;37.76;35.32;42.78;;
66463;Laerm;56827;52.178;4.500;2023-10-13T00:05:56;41.45;37.01;53.63;;
66463;Laerm;56827;52.178;4.500;2023-10-13T00:06:09;45.09;38.21;51.55;;
66463;Laerm;56827;52.178;4.500;2023-10-13T00:06:20;46.53;36.51;51.87;;
66463;Laerm;56827;52.178;4.500;2023-10-13T00:06:31;39.10;36.19;48.93;;
66463;Laerm;56827;52.178;4.500;2023-10-13T00:06:41;38.89;35.32;50.12;;
66463;Laerm;56827;52.178;4.500;2023-10-13T00:06:53;42.06;38.23;47.40;;
66463;Laerm;56827;52.178;4.500;2023-10-13T00:07:03;40.24;37.84;49.39;;
66463;Laerm;56827;52.178;4.500;2023-10-13T00:07:14;41.66;38.67;52.16;;
66463;Laerm;56827;52.178;4.500;2023-10-13T00:07:24;41.50;39.50;45.83;;
66463;Laerm;56827;52.178;4.500;2023-10-13T00:07:34;39.44;35.79;46.19;;
66463;Laerm;56827;52.178;4.500;2023-10-13T00:07:45;37.01;33.66;43.85;;
66463;Laerm;56827;52.178;4.500;2023-10-13T00:07:55;38.66;34.44;50.91;;
66463;Laerm;56827;52.178;4.500;2023-10-13T00:08:05;42.22;35.94;51.15;;
66463;Laerm;56827;52.178;4.500;2023-10-13T00:08:15;37.48;35.21;45.93;;
66463;Laerm;56827;52.178;4.500;2023-10-13T00:08:27;38.65;35.72;51.75;;
66463;Laerm;56827;52.178;4.500;2023-10-13T00:08:39;39.12;35.68;51.15;;
66463;Laerm;56827;52.178;4.500;2023-10-13T00:08:49;38.31;34.56;45.20;;
66463;Laerm;56827;52.178;4.500;2023-10-13T00:09:00;38.47;34.94;48.60;;
66463;Laerm;56827;52.178;4.500;2023-10-13T00:09:10;39.04;35.27;47.01;;
66463;Laerm;56827;52.178;4.500;2023-10-13T00:09:28;38.53;34.71;43.74;;
66463;Laerm;56827;52.178;4.500;2023-10-13T00:09:47;42.55;34.26;52.45;;
66463;Laerm;56827;52.178;4.500;2023-10-13T00:09:57;45.96;36.22;50.81;;
66463;Laerm;56827;52.178;4.500;2023-10-13T00:10:09;45.96;36.49;50.53;;
66463;Laerm;56827;52.178;4.500;2023-10-13T00:10:20;38.42;35.35;43.38;;
66463;Laerm;56827;52.178;4.500;2023-10-13T00:10:31;43.27;37.07;49.59;;
66463;Laerm;56827;52.178;4.500;2023-10-13T00:10:43;38.33;34.90;51.19;;
66463;Laerm;56827;52.178;4.500;2023-10-13T00:10:53;36.60;33.62;41.70;;
66463;Laerm;56827;52.178;4.500;2023-10-13T00:11:13;39.39;34.10;49.60;;
66463;Laerm;56827;52.178;4.500;2023-10-13T00:11:23;38.58;35.65;46.38;;
66463;Laerm;56827;52.178;4.500;2023-10-13T00:11:36;40.14;35.89;50.46;;
66463;Laerm;56827;52.178;4.500;2023-10-13T00:11:47;42.81;37.55;46.19;;
66463;Laerm;56827;52.178;4.500;2023-10-13T00:12:00;37.44;34.92;45.61;;
66463;Laerm;56827;52.178;4.500;2023-10-13T00:12:10;41.16;36.27;50.86;;
66463;Laerm;56827;52.178;4.500;2023-10-13T00:12:23;43.34;37.84;46.97;;
66463;Laerm;56827;52.178;4.500;2023-10-13T00:12:34;37.77;35.66;41.74;;
66463;Laerm;56827;52.178;4.500;2023-10-13T00:12:47;43.20;35.99;49.56;;
66463;Laerm;56827;52.178;4.500;2023-10-13T00:12:59;41.23;35.78;49.65;;
66463;Laerm;56827;52.178;4.500;2023-10-13T00:13:19;38.71;35.52;48.15;;
66463;Laerm;56827;52.178;4.500;2023-10-13T00:13:30;37.90;34.98;47.82;;
66463;Laerm;56827;52.178;4.500;2023-10-13T00:13:50;48.60;34.70;55.47;;
66463;Laerm;56827;52.178;4.500;2023-10-13T00:14:01;47.82;44.55;50.39;;
66463;Laerm;56827;52.178;4.500;2023-10-13T00:14:13;49.14;46.36;52.08;;
66463;Laerm;56827;52.178;4.500;2023-10-13T00:14:26;48.00;41.36;52.68;;
66463;Laerm;56827;52.178;4.500;2023-10-13T00:14:47;43.02;36.13;51.27;;
66463;Laerm;56827;52.178;4.500;2023-10-13T00:15:01;39.46;36.12;49.07;;
66463;Laerm;56827;52.178;4.500;2023-10-13T00:15:14;41.28;35.62;53.69;;
66463;Laerm;56827;52.178;4.500;2023-10-13T00:15:25;40.75;37.22;54.68;;
66463;Laerm;56827;52.178;4.500;2023-10-13T00:15:47;39.01;36.61;44.56;;
66463;Laerm;56827;52.178;4.500;2023-10-13T00:16:06;47.09;38.37;57.96;;
66463;Laerm;56827;52.178;4.500;2023-10-13T00:16:20;58.67;49.90;70.48;;
66463;Laerm;56827;52.178;4.500;2023-10-13T00:16:38;54.11;45.26;68.09;;
66463;Laerm;56827;52.178;4.500;2023-10-13T00:16:50;47.73;43.94;57.99;;
66463;Laerm;56827;52.178;4.500;2023-10-13T00:17:20;46.48;42.74;53.86;;
66463;Laerm;56827;52.178;4.500;2023-10-13T00:17:34;48.63;42.21;52.95;;
66463;Laerm;56827;52.178;4.500;2023-10-13T00:17:48;44.25;40.67;49.31;;
66463;Laerm;56827;52.178;4.500;2023-10-13T00:17:58;42.82;39.96;49.19;;
66463;Laerm;56827;52.178;4.500;2023-10-13T00:18:09;43.17;40.75;49.54;;
66463;Laerm;56827;52.178;4.500;2023-10-13T00:18:25;42.80;37.76;51.56;;
66463;Laerm;56827;52.178;4.500;2023-10-13T00:18:51;38.76;35.74;53.59;;
66463;Laerm;56827;52.178;4.500;2023-10-13T00:19:04;41.11;36.50;52.94;;
66463;Laerm;56827;52.178;4.500;2023-10-13T00:19:15;42.12;39.29;47.30;;
66463;Laerm;56827;52.178;4.500;2023-10-13T00:19:35;50.05;43.27;55.15;;
66463;Laerm;56827;52.178;4.500;2023-10-13T00:20:04;42.60;36.77;61.94;;
66463;Laerm;56827;52.178;4.500;2023-10-13T00:20:21;42.82;37.19;56.28;;
66463;Laerm;56827;52.178;4.500;2023-10-13T00:20:47;42.41;38.32;54.12;;
66463;Laerm;56827;52.178;4.500;2023-10-13T00:21:01;44.46;37.82;55.47;;
66463;Laerm;56827;52.178;4.500;2023-10-13T00:21:13;46.43;42.41;53.84;;
66463;Laerm;56827;52.178;4.500;2023-10-13T00:21:24;49.11;45.84;59.84;;
66463;Laerm;56827;52.178;4.500;2023-10-13T00:21:43;48.85;43.09;58.17;;
66463;Laerm;56827;52.178;4.500;2023-10-13T00:21:53;49.55;44.29;59.77;;
66463;Laerm;56827;52.178;4.500;2023-10-13T00:22:09;51.81;45.81;55.53;;
66463;Laerm;56827;52.178;4.500;2023-10-13T00:22:19;48.05;44.21;57.42;;
66463;Laerm;56827;52.178;4.500;2023-10-13T00:22:29;45.65;42.71;52.53;;
66463;Laerm;56827;52.178;4.500;2023-10-13T00:22:41;47.32;42.48;64.11;;
66463;Laerm;56827;52.178;4.500;2023-10-13T00:22:51;45.74;40.99;59.25;;
66463;Laerm;56827;52.178;4.500;2023-10-13T00:23:02;44.70;40.86;58.41;;
66463;Laerm;56827;52.178;4.500;2023-10-13T00:23:12;44.12;40.31;55.22;;
66463;Laerm;56827;52.178;4.500;2023-10-13T00:23:23;46.69;42.71;50.96;;
66463;Laerm;56827;52.178;4.500;2023-10-13T00:23:36;45.72;42.93;53.75;;
66463;Laerm;56827;52.178;4.500;2023-10-13T00:23:47;43.98;40.70;52.10;;
66463;Laerm;56827;52.178;4.500;2023-10-13T00:24:03;44.27;39.39;56.20;;
66463;Laerm;56827;52.178;4.500;2023-10-13T00:24:21;46.96;43.32;53.22;;
66463;Laerm;56827;52.178;4.500;2023-10-13T00:24:33;43.71;40.41;51.00;;
66463;Laerm;56827;52.178;4.500;2023-10-13T00:24:51;43.11;40.04;58.61;;
66463;Laerm;56827;52.178;4.500;2023-10-13T00:25:08;46.80;39.89;54.84;;
66463;Laerm;56827;52.178;4.500;2023-10-13T00:25:29;51.90;45.40;58.11;;
66463;Laerm;56827;52.178;4.500;2023-10-13T00:25:44;43.91;40.01;51.68;;
66463;Laerm;56827;52.178;4.500;2023-10-13T00:26:00;43.29;38.33;59.80;;
66463;Laerm;56827;52.178;4.500;2023-10-13T00:26:12;41.44;37.05;52.09;;
66463;Laerm;56827;52.178;4.500;2023-10-13T00:26:28;42.46;37.04;56.89;;
66463;Laerm;56827;52.178;4.500;2023-10-13T00:26:38;43.75;38.86;58.55;;
66463;Laerm;56827;52.178;4.500;2023-10-13T00:26:53;43.38;38.15;58.82;;
66463;Laerm;56827;52.178;4.500;2023-10-13T00:27:04;43.58;38.28;52.11;;
66463;Laerm;56827;52.178;4.500;2023-10-13T00:27:17;44.83;39.08;61.42;;
66463;Laerm;56827;52.178;4.500;2023-10-13T00:27:40;42.48;37.39;59.24;;
66463;Laerm;56827;52.178;4.500;2023-10-13T00:27:51;41.20;37.55;52.68;;
66463;Laerm;56827;52.178;4.500;2023-10-13T00:28:02;42.48;37.42;56.01;;
66463;Laerm;56827;52.178;4.500;2023-10-13T00:28:13;40.86;36.62;56.89;;
66463;Laerm;56827;52.178;4.500;2023-10-13T00:28:33;41.68;36.86;55.45;;
66463;Laerm;56827;52.178;4.500;2023-10-13T00:29:00;41.74;37.36;52.91;;
66463;Laerm;56827;52.178;4.500;2023-10-13T00:29:16;42.17;37.19;51.66;;
66463;Laerm;56827;52.178;4.500;2023-10-13T00:29:27;41.09;36.52;50.30;;
66463;Laerm;56827;52.178;4.500;2023-10-13T00:29:40;39.81;35.72;52.42;;
66463;Laerm;56827;52.178;4.500;2023-10-13T00:29:51;41.89;37.05;55.06;;
66463;Laerm;56827;52.178;4.500;2023-10-13T00:30:02;43.04;37.27;53.17;;
66463;Laerm;56827;52.178;4.500;2023-10-13T00:30:32;42.62;37.53;55.09;;
66463;Laerm;56827;52.178;4.500;2023-10-13T00:30:46;40.85;37.29;52.14;;
66463;Laerm;56827;52.178;4.500;2023-10-13T00:31:01;42.65;37.74;55.74;;
66463;Laerm;56827;52.178;4.500;2023-10-13T00:31:15;42.53;38.33;56.78;;
66463;Laerm;56827;52.178;4.500;2023-10-13T00:31:27;43.14;39.01;51.60;;
66463;Laerm;56827;52.178;4.500;2023-10-13T00:31:43;43.34;38.92;62.05;;
66463;Laerm;56827;52.178;4.500;2023-10-13T00:31:58;44.88;40.69;56.26;;
66463;Laerm;56827;52.178;4.500;2023-10-13T00:32:08;46.68;41.09;64.20;;
66463;Laerm;56827;52.178;4.500;2023-10-13T00:32:22;44.70;40.67;55.10;;
66463;Laerm;56827;52.178;4.500;2023-10-13T00:32:37;44.09;38.12;54.33;;
66463;Laerm;56827;52.178;4.500;2023-10-13T00:32:50;41.60;37.83;52.11;;
66463;Laerm;56827;52.178;4.500;2023-10-13T00:33:03;43.96;38.61;55.66;;
66463;Laerm;56827;52.178;4.500;2023-10-13T00:33:14;42.26;37.30;53.09;;
66463;Laerm;56827;52.178;4.500;2023-10-13T00:33:30;41.31;37.10;54.10;;
66463;Laerm;56827;52.178;4.500;2023-10-13T00:33:42;40.43;36.86;51.79;;
66463;Laerm;56827;52.178;4.500;2023-10-13T00:33:52;43.45;39.22;50.61;;
66463;Laerm;56827;52.178;4.500;2023-10-13T00:34:05;40.72;36.50;54.12;;
66463;Laerm;56827;52.178;4.500;2023-10-13T00:34:34;42.40;35.84;52.43;;
66463;Laerm;56827;52.178;4.500;2023-10-13T00:34:47;41.53;36.41;53.10;;
66463;Laerm;56827;52.178;4.500;2023-10-13T00:34:57;43.80;36.35;51.70;;
66463;Laerm;56827;52.178;4.500;2023-10-13T00:35:09;47.62;41.25;51.97;;
66463;Laerm;56827;52.178;4.500;2023-10-13T00:35:21;43.99;40.03;50.34;;
66463;Laerm;56827;52.178;4.500;2023-10-13T00:35:35;42.42;39.16;50.81;;
66463;Laerm;56827;52.178;4.500;2023-10-13T00:35:46;41.31;37.80;55.11;;
66463;Laerm;56827;52.178;4.500;2023-10-13T00:35:57;43.79;39.07;58.39;;
66463;Laerm;56827;52.178;4.500;2023-10-13T00:36:08;44.92;40.43;50.91;;
66463;Laerm;56827;52.178;4.500;2023-10-13T00:36:20;43.01;39.24;52.76;;
66463;Laerm;56827;52.178;4.500;2023-10-13T00:36:31;42.13;38.45;52.63;;
66463;Laerm;56827;52.178;4.500;2023-10-13T00:36:44;42.00;37.75;59.44;;
66463;Laerm;56827;52.178;4.500;2023-10-13T00:37:13;43.42;37.70;61.08;;
66463;Laerm;56827;52.178;4.500;2023-10-13T00:37:27;44.57;37.03;68.08;;
66463;Laerm;56827;52.178;4.500;2023-10-13T00:37:38;43.26;38.58;54.92;;
66463;Laerm;56827;52.178;4.500;2023-10-13T00:37:55;43.32;37.93;56.28;;
66463;Laerm;56827;52.178;4.500;2023-10-13T00:38:07;42.02;37.37;51.13;;
66463;Laerm;56827;52.178;4.500;2023-10-13T00:38:23;44.12;37.90;62.92;;
66463;Laerm;56827;52.178;4.500;2023-10-13T00:38:33;44.14;39.22;56.45;;
66463;Laerm;56827;52.178;4.500;2023-10-13T00:38:45;43.79;39.89;56.91;;
66463;Laerm;56827;52.178;4.500;2023-10-13T00:38:58;45.43;39.52;65.73;;
66463;Laerm;56827;52.178;4.500;2023-10-13T00:39:09;43.99;40.35;56.69;;
66463;Laerm;56827;52.178;4.500;2023-10-13T00:39:25;45.83;40.94;66.40;;
66463;Laerm;56827;52.178;4.500;2023-10-13T00:39:38;48.80;41.71;58.52;;
66463;Laerm;56827;52.178;4.500;2023-10-13T00:39:55;48.37;43.24;61.73;;
66463;Laerm;56827;52.178;4.500;2023-10-13T00:40:07;47.18;42.97;57.54;;
66463;Laerm;56827;52.178;4.500;2023-10-13T00:40:26;47.40;42.43;65.47;;
66463;Laerm;56827;52.178;4.500;2023-10-13T00:40:40;45.57;41.48;54.96;;
66463;Laerm;56827;52.178;4.500;2023-10-13T00:40:50;45.90;41.88;59.35;;
66463;Laerm;56827;52.178;4.500;2023-10-13T00:41:04;45.32;41.76;57.32;;
66463;Laerm;56827;52.178;4.500;2023-10-13T00:41:27;46.39;41.22;63.12;;
66463;Laerm;56827;52.178;4.500;2023-10-13T00:42:01;49.53;41.85;59.01;;
66463;Laerm;56827;52.178;4.500;2023-10-13T00:42:16;46.72;42.77;60.07;;
66463;Laerm;56827;52.178;4.500;2023-10-13T00:42:30;45.89;42.09;57.74;;
66463;Laerm;56827;52.178;4.500;2023-10-13T00:43:01;45.74;41.04;60.85;;
66463;Laerm;56827;52.178;4.500;2023-10-13T00:43:29;47.80;42.85;69.07;;
66463;Laerm;56827;52.178;4.500;2023-10-13T00:43:45;47.04;43.17;62.16;;
66463;Laerm;56827;52.178;4.500;2023-10-13T00:44:13;47.17;42.25;60.46;;
66463;Laerm;56827;52.178;4.500;2023-10-13T00:44:26;50.24;43.97;59.93;;
66463;Laerm;56827;52.178;4.500;2023-10-13T00:44:48;49.38;43.28;58.29;;
66463;Laerm;56827;52.178;4.500;2023-10-13T00:44:58;49.91;43.44;63.74;;
66463;Laerm;56827;52.178;4.500;2023-10-13T00:45:10;47.99;41.94;56.15;;
66463;Laerm;56827;52.178;4.500;2023-10-13T00:45:26;44.34;40.11;58.07;;
66463;Laerm;56827;52.178;4.500;2023-10-13T00:45:38;43.98;39.97;52.84;;
66463;Laerm;56827;52.178;4.500;2023-10-13T00:45:51;44.28;39.77;55.74;;
66463;Laerm;56827;52.178;4.500;2023-10-13T00:46:06;43.94;40.06;58.46;;
66463;Laerm;56827;52.178;4.500;2023-10-13T00:46:17;44.62;40.58;58.73;;
66463;Laerm;56827;52.178;4.500;2023-10-13T00:46:32;44.26;39.91;57.99;;
66463;Laerm;56827;52.178;4.500;2023-10-13T00:46:43;43.33;39.50;56.01;;
66463;Laerm;56827;52.178;4.500;2023-10-13T00:46:55;45.13;41.35;54.45;;
66463;Laerm;56827;52.178;4.500;2023-10-13T00:47:07;44.37;40.10;58.44;;
66463;Laerm;56827;52.178;4.500;2023-10-13T00:47:19;43.45;39.40;56.65;;
66463;Laerm;56827;52.178;4.500;2023-10-13T00:47:47;43.37;38.99;58.73;;
66463;Laerm;56827;52.178;4.500;2023-10-13T00:47:59;44.35;40.26;58.78;;
66463;Laerm;56827;52.178;4.500;2023-10-13T00:48:11;48.89;43.93;55.32;;
66463;Laerm;56827;52.178;4.500;2023-10-13T00:48:25;44.89;40.85;50.72;;
66463;Laerm;56827;52.178;4.500;2023-10-13T00:48:44;44.17;39.60;53.83;;
66463;Laerm;56827;52.178;4.500;2023-10-13T00:49:03;45.76;39.06;67.71;;
66463;Laerm;56827;52.178;4.500;2023-10-13T00:49:16;45.16;40.88;55.71;;
66463;Laerm;56827;52.178;4.500;2023-10-13T00:49:26;47.67;42.58;61.05;;
66463;Laerm;56827;52.178;4.500;2023-10-13T00:49:40;46.54;42.54;54.78;;
66463;Laerm;56827;52.178;4.500;2023-10-13T00:49:50;49.69;45.63;59.09;;
66463;Laerm;56827;52.178;4.500;2023-10-13T00:50:01;47.07;44.33;57.44;;
66463;Laerm;56827;52.178;4.500;2023-10-13T00:50:11;46.10;43.43;54.49;;
66463;Laerm;56827;52.178;4.500;2023-10-13T00:50:25;45.85;42.33;57.10;;
66463;Laerm;56827;52.178;4.500;2023-10-13T00:50:35;44.48;41.56;56.51;;
66463;Laerm;56827;52.178;4.500;2023-10-13T00:50:46;48.66;41.62;61.01;;
66463;Laerm;56827;52.178;4.500;2023-10-13T00:50:58;48.87;44.13;60.42;;
66463;Laerm;56827;52.178;4.500;2023-10-13T00:51:13;43.96;40.11;56.98;;
66463;Laerm;56827;52.178;4.500;2023-10-13T00:51:28;52.41;41.02;58.99;;
66463;Laerm;56827;52.178;4.500;2023-10-13T00:52:05;54.97;47.24;63.26;;
66463;Laerm;56827;52.178;4.500;2023-10-13T00:52:16;51.97;45.81;62.36;;
66463;Laerm;56827;52.178;4.500;2023-10-13T00:52:28;49.60;43.95;54.38;;
66463;Laerm;56827;52.178;4.500;2023-10-13T00:52:39;48.15;41.19;67.06;;
66463;Laerm;56827;52.178;4.500;2023-10-13T00:52:51;44.59;40.38;60.31;;
66463;Laerm;56827;52.178;4.500;2023-10-13T00:53:01;46.74;41.90;61.61;;
66463;Laerm;56827;52.178;4.500;2023-10-13T00:53:12;45.21;41.53;58.90;;
66463;Laerm;56827;52.178;4.500;2023-10-13T00:53:23;44.60;40.51;55.17;;
66463;Laerm;56827;52.178;4.500;2023-10-13T00:53:36;44.94;40.54;54.97;;
66463;Laerm;56827;52.178;4.500;2023-10-13T00:53:50;43.87;40.30;52.25;;
66463;Laerm;56827;52.178;4.500;2023-10-13T00:54:01;43.70;40.74;51.38;;
66463;Laerm;56827;52.178;4.500;2023-10-13T00:54:13;44.77;41.16;56.89;;
66463;Laerm;56827;52.178;4.500;2023-10-13T00:54:23;45.67;42.39;54.98;;
66463;Laerm;56827;52.178;4.500;2023-10-13T00:54:37;46.98;42.25;58.25;;
66463;Laerm;56827;52.178;4.500;2023-10-13T00:54:48;46.43;42.29;56.03;;
66463;Laerm;56827;52.178;4.500;2023-10-13T00:54:59;44.97;40.11;58.46;;
66463;Laerm;56827;52.178;4.500;2023-10-13T00:55:10;47.08;41.30;67.20;;
66463;Laerm;56827;52.178;4.500;2023-10-13T00:55:21;47.19;41.84;60.29;;
66463;Laerm;56827;52.178;4.500;2023-10-13T00:55:36;47.42;43.48;58.95;;
66463;Laerm;56827;52.178;4.500;2023-10-13T00:55:51;46.78;42.32;58.78;;
66463;Laerm;56827;52.178;4.500;2023-10-13T00:56:01;46.72;42.68;56.46;;
66463;Laerm;56827;52.178;4.500;2023-10-13T00:56:19;47.09;42.39;63.96;;
66463;Laerm;56827;52.178;4.500;2023-10-13T00:56:40;45.18;41.13;58.17;;
66463;Laerm;56827;52.178;4.500;2023-10-13T00:56:56;45.25;40.49;61.41;;
66463;Laerm;56827;52.178;4.500;2023-10-13T00:57:14;44.19;40.36;55.96;;
66463;Laerm;56827;52.178;4.500;2023-10-13T00:57:38;45.88;40.90;60.80;;
66463;Laerm;56827;52.178;4.500;2023-10-13T00:57:53;50.22;42.65;58.68;;
66463;Laerm;56827;52.178;4.500;2023-10-13T00:58:04;53.09;44.09;59.68;;
66463;Laerm;56827;52.178;4.500;2023-10-13T00:58:17;49.76;43.59;62.16;;
66463;Laerm;56827;52.178;4.500;2023-10-13T00:58:32;48.15;43.87;61.33;;
66463;Laerm;56827;52.178;4.500;2023-10-13T00:58:44;46.44;41.87;58.15;;
66463;Laerm;56827;52.178;4.500;2023-10-13T00:58:56;46.46;42.08;58.78;;
66463;Laerm;56827;52.178;4.500;2023-10-13T00:59:08;47.68;43.68;60.43;;
66463;Laerm;56827;52.178;4.500;2023-10-13T00:59:20;46.35;42.61;58.83;;
66463;Laerm;56827;52.178;4.500;2023-10-13T00:59:35;48.00;43.70;58.07;;
66463;Laerm;56827;52.178;4.500;2023-10-13T00:59:46;48.65;43.89;54.04;;
66463;Laerm;56827;52.178;4.500;2023-10-13T00:59:57;47.70;43.09;57.74;;
66463;Laerm;56827;52.178;4.500;2023-10-13T01:00:08;45.23;41.58;51.95;;
66463;Laerm;56827;52.178;4.500;2023-10-13T01:00:44;46.39;41.16;57.93;;
66463;Laerm;56827;52.178;4.500;2023-10-13T01:00:57;45.45;41.62;58.36;;
66463;Laerm;56827;52.178;4.500;2023-10-13T01:01:28;44.05;39.03;56.23;;
66463;Laerm;56827;52.178;4.500;2023-10-13T01:01:44;43.71;39.47;52.70;;
66463;Laerm;56827;52.178;4.500;2023-10-13T01:01:54;44.50;40.15;58.32;;
66463;Laerm;56827;52.178;4.500;2023-10-13T01:02:05;43.46;39.76;53.74;;
66463;Laerm;56827;52.178;4.500;2023-10-13T01:02:34;43.15;38.44;55.44;;
66463;Laerm;56827;52.178;4.500;2023-10-13T01:02:47;42.83;38.98;51.37;;
66463;Laerm;56827;52.178;4.500;2023-10-13T01:03:06;42.98;38.95;53.01;;
66463;Laerm;56827;52.178;4.500;2023-10-13T01:03:17;44.26;39.48;57.55;;
66463;Laerm;56827;52.178;4.500;2023-10-13T01:03:35;43.59;38.78;56.02;;
66463;Laerm;56827;52.178;4.500;2023-10-13T01:03:49;42.99;37.98;53.41;;
66463;Laerm;56827;52.178;4.500;2023-10-13T01:04:00;44.55;38.61;64.29;;
66463;Laerm;56827;52.178;4.500;2023-10-13T01:04:13;43.88;38.84;56.45;;
66463;Laerm;56827;52.178;4.500;2023-10-13T01:04:24;43.78;39.13;58.48;;
66463;Laerm;56827;52.178;4.500;2023-10-13T01:04:38;44.25;39.00;54.09;;
66463;Laerm;56827;52.178;4.500;2023-10-13T01:04:48;44.36;39.47;56.24;;
66463;Laerm;56827;52.178;4.500;2023-10-13T01:04:59;44.05;40.15;59.80;;
66463;Laerm;56827;52.178;4.500;2023-10-13T01:05:09;43.65;39.04;53.05;;
66463;Laerm;56827;52.178;4.500;2023-10-13T01:05:19;43.62;39.32;58.90;;
66463;Laerm;56827;52.178;4.500;2023-10-13T01:05:30;43.26;39.43;55.92;;
66463;Laerm;56827;52.178;4.500;2023-10-13T01:05:42;45.27;40.26;56.78;;
66463;Laerm;56827;52.178;4.500;2023-10-13T01:05:53;44.81;40.08;63.20;;
66463;Laerm;56827;52.178;4.500;2023-10-13T01:06:05;43.99;39.40;56.94;;
66463;Laerm;56827;52.178;4.500;2023-10-13T01:06:17;44.17;38.92;62.39;;
66463;Laerm;56827;52.178;4.500;2023-10-13T01:06:27;46.47;39.77;52.40;;
66463;Laerm;56827;52.178;4.500;2023-10-13T01:06:38;46.09;39.75;59.06;;
66463;Laerm;56827;52.178;4.500;2023-10-13T01:06:49;42.68;38.23;54.83;;
66463;Laerm;56827;52.178;4.500;2023-10-13T01:07:01;44.19;38.62;59.88;;
66463;Laerm;56827;52.178;4.500;2023-10-13T01:07:11;42.54;38.53;52.68;;
66463;Laerm;56827;52.178;4.500;2023-10-13T01:07:22;41.11;37.42;49.53;;
66463;Laerm;56827;52.178;4.500;2023-10-13T01:07:33;41.49;37.84;55.94;;
66463;Laerm;56827;52.178;4.500;2023-10-13T01:07:47;43.78;38.45;61.75;;
66463;Laerm;56827;52.178;4.500;2023-10-13T01:08:04;43.50;38.85;59.17;;
66463;Laerm;56827;52.178;4.500;2023-10-13T01:08:14;43.25;38.87;56.90;;
66463;Laerm;56827;52.178;4.500;2023-10-13T01:08:34;45.09;39.51;64.27;;
66463;Laerm;56827;52.178;4.500;2023-10-13T01:08:48;44.07;39.87;57.84;;
66463;Laerm;56827;52.178;4.500;2023-10-13T01:09:02;45.86;41.39;63.07;;
66463;Laerm;56827;52.178;4.500;2023-10-13T01:09:22;44.67;40.08;56.30;;
66463;Laerm;56827;52.178;4.500;2023-10-13T01:09:40;47.55;41.68;63.67;;
66463;Laerm;56827;52.178;4.500;2023-10-13T01:09:50;47.82;44.55;59.46;;
66463;Laerm;56827;52.178;4.500;2023-10-13T01:10:00;47.62;43.18;58.75;;
66463;Laerm;56827;52.178;4.500;2023-10-13T01:10:14;48.08;43.06;61.56;;
66463;Laerm;56827;52.178;4.500;2023-10-13T01:10:25;46.65;41.99;62.15;;
66463;Laerm;56827;52.178;4.500;2023-10-13T01:10:42;46.96;41.56;64.98;;
66463;Laerm;56827;52.178;4.500;2023-10-13T01:10:52;48.62;42.85;62.26;;
66463;Laerm;56827;52.178;4.500;2023-10-13T01:11:06;49.88;43.98;60.35;;
66463;Laerm;56827;52.178;4.500;2023-10-13T01:11:18;49.10;43.73;63.35;;
66463;Laerm;56827;52.178;4.500;2023-10-13T01:11:28;47.92;43.49;65.28;;
66463;Laerm;56827;52.178;4.500;2023-10-13T01:11:40;47.07;42.59;55.08;;
66463;Laerm;56827;52.178;4.500;2023-10-13T01:11:52;46.55;42.44;56.86;;
66463;Laerm;56827;52.178;4.500;2023-10-13T01:12:04;46.02;42.56;60.37;;
66463;Laerm;56827;52.178;4.500;2023-10-13T01:12:14;45.87;42.00;60.11;;
66463;Laerm;56827;52.178;4.500;2023-10-13T01:12:24;45.97;41.60;60.89;;
66463;Laerm;56827;52.178;4.500;2023-10-13T01:12:35;45.41;41.95;53.98;;
66463;Laerm;56827;52.178;4.500;2023-10-13T01:12:46;45.18;40.45;61.98;;
66463;Laerm;56827;52.178;4.500;2023-10-13T01:12:56;44.28;40.64;54.54;;
66463;Laerm;56827;52.178;4.500;2023-10-13T01:13:06;44.56;40.24;51.94;;
66463;Laerm;56827;52.178;4.500;2023-10-13T01:13:16;44.39;40.13;57.84;;
66463;Laerm;56827;52.178;4.500;2023-10-13T01:13:27;47.26;42.00;52.95;;
66463;Laerm;56827;52.178;4.500;2023-10-13T01:13:40;43.87;39.91;53.76;;
66463;Laerm;56827;52.178;4.500;2023-10-13T01:13:51;45.19;40.76;55.57;;
66463;Laerm;56827;52.178;4.500;2023-10-13T01:14:03;43.40;38.95;54.02;;
66463;Laerm;56827;52.178;4.500;2023-10-13T01:14:14;43.42;39.44;52.83;;
66463;Laerm;56827;52.178;4.500;2023-10-13T01:14:27;43.06;39.36;53.16;;
66463;Laerm;56827;52.178;4.500;2023-10-13T01:14:39;44.14;39.84;54.60;;
66463;Laerm;56827;52.178;4.500;2023-10-13T01:14:49;43.71;40.16;51.62;;
66463;Laerm;56827;52.178;4.500;2023-10-13T01:14:59;51.93;41.95;56.28;;
66463;Laerm;56827;52.178;4.500;2023-10-13T01:15:21;43.80;39.43;55.03;;
66463;Laerm;56827;52.178;4.500;2023-10-13T01:15:32;42.71;39.38;53.37;;
66463;Laerm;56827;52.178;4.500;2023-10-13T01:15:43;41.55;37.99;49.12;;
66463;Laerm;56827;52.178;4.500;2023-10-13T01:15:57;40.85;37.09;47.82;;
66463;Laerm;56827;52.178;4.500;2023-10-13T01:16:07;42.38;38.81;49.98;;
66463;Laerm;56827;52.178;4.500;2023-10-13T01:16:18;44.71;38.73;52.51;;
66463;Laerm;56827;52.178;4.500;2023-10-13T01:16:31;41.73;37.26;48.97;;
66463;Laerm;56827;52.178;4.500;2023-10-13T01:16:42;42.23;36.15;52.35;;
66463;Laerm;56827;52.178;4.500;2023-10-13T01:16:56;40.54;35.57;51.45;;